sensor_id;sensor_type;location;lat;lon;timestamp;P1;durP1;ratioP1;P2;durP2;ratioP2
1505;SDS011;744;51.436;7.356;2023-04-25T00:00:20;11.83;;;5.50;;
1505;SDS011;744;51.436;7.356;2023-04-25T00:02:47;7.93;;;4.73;;
1505;SDS011;744;51.436;7.356;2023-04-25T00:05:14;8.53;;;4.23;;
1505;SDS011;744;51.436;7.356;2023-04-25T00:07:42;11.70;;;4.93;;
1505;SDS011;744;51.436;7.356;2023-04-25T00:10:09;10.30;;;4.60;;
1505;SDS011;744;51.436;7.356;2023-04-25T00:12:37;10.03;;;4.60;;
1505;SDS011;744;51.436;7.356;2023-04-25T00:15:05;9.87;;;4.63;;
1505;SDS011;744;51.436;7.356;2023-04-25T00:17:32;6.23;;;4.00;;
1505;SDS011;744;51.436;7.356;2023-04-25T00:20:01;9.23;;;5.37;;
1505;SDS011;744;51.436;7.356;2023-04-25T00:22:31;7.20;;;4.10;;
1505;SDS011;744;51.436;7.356;2023-04-25T00:24:59;12.87;;;5.10;;
1505;SDS011;744;51.436;7.356;2023-04-25T00:27:26;14.23;;;5.20;;
1505;SDS011;744;51.436;7.356;2023-04-25T00:29:53;8.43;;;5.13;;
1505;SDS011;744;51.436;7.356;2023-04-25T00:32:20;9.13;;;5.33;;
1505;SDS011;744;51.436;7.356;2023-04-25T00:34:46;8.27;;;4.80;;
1505;SDS011;744;51.436;7.356;2023-04-25T00:37:13;11.23;;;6.20;;
1505;SDS011;744;51.436;7.356;2023-04-25T00:39:40;15.33;;;5.07;;
1505;SDS011;744;51.436;7.356;2023-04-25T00:42:07;9.60;;;4.73;;
1505;SDS011;744;51.436;7.356;2023-04-25T00:44:34;14.23;;;5.43;;
1505;SDS011;744;51.436;7.356;2023-04-25T00:47:02;11.23;;;5.10;;
1505;SDS011;744;51.436;7.356;2023-04-25T00:49:29;10.73;;;5.90;;
1505;SDS011;744;51.436;7.356;2023-04-25T00:51:56;8.07;;;5.40;;
1505;SDS011;744;51.436;7.356;2023-04-25T00:54:23;10.53;;;5.00;;
1505;SDS011;744;51.436;7.356;2023-04-25T00:56:51;8.60;;;5.20;;
1505;SDS011;744;51.436;7.356;2023-04-25T00:59:19;10.87;;;5.70;;
1505;SDS011;744;51.436;7.356;2023-04-25T01:01:46;7.23;;;4.60;;
1505;SDS011;744;51.436;7.356;2023-04-25T01:04:13;14.53;;;6.53;;
1505;SDS011;744;51.436;7.356;2023-04-25T01:06:41;11.20;;;4.70;;
1505;SDS011;744;51.436;7.356;2023-04-25T01:09:08;10.43;;;6.10;;
1505;SDS011;744;51.436;7.356;2023-04-25T01:11:35;9.73;;;6.33;;
1505;SDS011;744;51.436;7.356;2023-04-25T01:14:02;12.60;;;6.57;;
1505;SDS011;744;51.436;7.356;2023-04-25T01:16:29;9.27;;;6.23;;
1505;SDS011;744;51.436;7.356;2023-04-25T01:18:56;9.33;;;6.07;;
1505;SDS011;744;51.436;7.356;2023-04-25T01:21:23;13.20;;;7.00;;
1505;SDS011;744;51.436;7.356;2023-04-25T01:23:53;13.80;;;7.10;;
1505;SDS011;744;51.436;7.356;2023-04-25T01:26:20;10.03;;;7.77;;
1505;SDS011;744;51.436;7.356;2023-04-25T01:28:48;14.83;;;7.40;;
1505;SDS011;744;51.436;7.356;2023-04-25T01:31:15;11.13;;;6.37;;
1505;SDS011;744;51.436;7.356;2023-04-25T01:33:44;13.57;;;6.97;;
1505;SDS011;744;51.436;7.356;2023-04-25T01:36:11;6.70;;;5.97;;
1505;SDS011;744;51.436;7.356;2023-04-25T01:38:39;10.77;;;5.67;;
1505;SDS011;744;51.436;7.356;2023-04-25T01:41:06;13.07;;;7.03;;
1505;SDS011;744;51.436;7.356;2023-04-25T01:43:33;13.80;;;5.70;;
1505;SDS011;744;51.436;7.356;2023-04-25T01:46:00;15.67;;;7.20;;
1505;SDS011;744;51.436;7.356;2023-04-25T01:48:27;9.80;;;6.53;;
1505;SDS011;744;51.436;7.356;2023-04-25T01:50:54;9.93;;;6.60;;
1505;SDS011;744;51.436;7.356;2023-04-25T01:53:21;12.33;;;6.37;;
1505;SDS011;744;51.436;7.356;2023-04-25T01:55:48;10.63;;;6.37;;
1505;SDS011;744;51.436;7.356;2023-04-25T01:58:15;12.67;;;6.70;;
1505;SDS011;744;51.436;7.356;2023-04-25T02:00:42;9.80;;;6.90;;
1505;SDS011;744;51.436;7.356;2023-04-25T02:03:09;9.43;;;6.00;;
1505;SDS011;744;51.436;7.356;2023-04-25T02:05:36;11.10;;;6.57;;
1505;SDS011;744;51.436;7.356;2023-04-25T02:08:04;12.27;;;8.07;;
1505;SDS011;744;51.436;7.356;2023-04-25T02:10:32;11.87;;;6.93;;
1505;SDS011;744;51.436;7.356;2023-04-25T02:13:00;12.63;;;7.57;;
1505;SDS011;744;51.436;7.356;2023-04-25T02:15:27;10.67;;;7.47;;
1505;SDS011;744;51.436;7.356;2023-04-25T02:17:54;11.13;;;8.50;;
1505;SDS011;744;51.436;7.356;2023-04-25T02:20:21;15.90;;;8.17;;
1505;SDS011;744;51.436;7.356;2023-04-25T02:22:48;12.03;;;9.40;;
1505;SDS011;744;51.436;7.356;2023-04-25T02:25:15;15.67;;;10.77;;
1505;SDS011;744;51.436;7.356;2023-04-25T02:27:42;12.30;;;9.43;;
1505;SDS011;744;51.436;7.356;2023-04-25T02:30:09;18.63;;;9.50;;
1505;SDS011;744;51.436;7.356;2023-04-25T02:32:36;18.13;;;9.40;;
1505;SDS011;744;51.436;7.356;2023-04-25T02:35:04;15.70;;;8.80;;
1505;SDS011;744;51.436;7.356;2023-04-25T02:37:35;13.50;;;8.33;;
1505;SDS011;744;51.436;7.356;2023-04-25T02:40:02;13.67;;;8.83;;
1505;SDS011;744;51.436;7.356;2023-04-25T02:42:30;9.57;;;7.30;;
1505;SDS011;744;51.436;7.356;2023-04-25T02:44:57;9.83;;;7.63;;
1505;SDS011;744;51.436;7.356;2023-04-25T02:47:24;11.23;;;7.77;;
1505;SDS011;744;51.436;7.356;2023-04-25T02:49:51;16.13;;;8.70;;
1505;SDS011;744;51.436;7.356;2023-04-25T02:52:17;10.77;;;6.97;;
1505;SDS011;744;51.436;7.356;2023-04-25T02:54:44;11.07;;;7.53;;
1505;SDS011;744;51.436;7.356;2023-04-25T02:57:11;12.20;;;6.77;;
1505;SDS011;744;51.436;7.356;2023-04-25T02:59:38;16.73;;;7.50;;
1505;SDS011;744;51.436;7.356;2023-04-25T03:02:05;8.90;;;6.77;;
1505;SDS011;744;51.436;7.356;2023-04-25T03:04:31;9.00;;;5.77;;
1505;SDS011;744;51.436;7.356;2023-04-25T03:06:59;14.43;;;6.57;;
1505;SDS011;744;51.436;7.356;2023-04-25T03:09:27;10.80;;;6.73;;
1505;SDS011;744;51.436;7.356;2023-04-25T03:11:53;9.97;;;7.07;;
1505;SDS011;744;51.436;7.356;2023-04-25T03:14:20;10.13;;;7.40;;
1505;SDS011;744;51.436;7.356;2023-04-25T03:16:47;8.20;;;6.67;;
1505;SDS011;744;51.436;7.356;2023-04-25T03:19:14;19.10;;;7.77;;
1505;SDS011;744;51.436;7.356;2023-04-25T03:21:43;10.00;;;6.13;;
1505;SDS011;744;51.436;7.356;2023-04-25T03:24:10;13.47;;;7.00;;
1505;SDS011;744;51.436;7.356;2023-04-25T03:26:38;7.40;;;6.33;;
1505;SDS011;744;51.436;7.356;2023-04-25T03:29:04;7.97;;;6.27;;
1505;SDS011;744;51.436;7.356;2023-04-25T03:31:31;11.93;;;6.10;;
1505;SDS011;744;51.436;7.356;2023-04-25T03:33:58;7.13;;;5.40;;
1505;SDS011;744;51.436;7.356;2023-04-25T03:36:25;12.87;;;5.17;;
1505;SDS011;744;51.436;7.356;2023-04-25T03:38:51;7.87;;;5.40;;
1505;SDS011;744;51.436;7.356;2023-04-25T03:41:18;6.37;;;4.80;;
1505;SDS011;744;51.436;7.356;2023-04-25T03:43:45;15.33;;;6.33;;
1505;SDS011;744;51.436;7.356;2023-04-25T03:46:12;15.00;;;6.00;;
1505;SDS011;744;51.436;7.356;2023-04-25T03:48:39;8.63;;;5.00;;
1505;SDS011;744;51.436;7.356;2023-04-25T03:51:05;10.33;;;5.90;;
1505;SDS011;744;51.436;7.356;2023-04-25T03:53:32;14.60;;;6.40;;
1505;SDS011;744;51.436;7.356;2023-04-25T03:55:59;8.80;;;4.70;;
1505;SDS011;744;51.436;7.356;2023-04-25T03:58:25;10.50;;;5.40;;
1505;SDS011;744;51.436;7.356;2023-04-25T04:00:52;6.77;;;5.60;;
1505;SDS011;744;51.436;7.356;2023-04-25T04:03:19;16.37;;;5.90;;
1505;SDS011;744;51.436;7.356;2023-04-25T04:05:46;10.90;;;5.20;;
1505;SDS011;744;51.436;7.356;2023-04-25T04:08:14;10.07;;;5.20;;
1505;SDS011;744;51.436;7.356;2023-04-25T04:10:41;10.13;;;5.83;;
1505;SDS011;744;51.436;7.356;2023-04-25T04:13:07;12.60;;;5.20;;
1505;SDS011;744;51.436;7.356;2023-04-25T04:15:34;8.27;;;5.30;;
1505;SDS011;744;51.436;7.356;2023-04-25T04:18:01;15.27;;;6.57;;
1505;SDS011;744;51.436;7.356;2023-04-25T04:20:29;11.67;;;6.07;;
1505;SDS011;744;51.436;7.356;2023-04-25T04:22:56;11.70;;;5.70;;
1505;SDS011;744;51.436;7.356;2023-04-25T04:25:23;10.13;;;6.13;;
1505;SDS011;744;51.436;7.356;2023-04-25T04:27:50;7.43;;;3.90;;
1505;SDS011;744;51.436;7.356;2023-04-25T04:30:21;4.23;;;3.00;;
1505;SDS011;744;51.436;7.356;2023-04-25T04:32:50;5.17;;;2.73;;
1505;SDS011;744;51.436;7.356;2023-04-25T04:35:18;4.27;;;2.50;;
1505;SDS011;744;51.436;7.356;2023-04-25T04:37:44;5.17;;;2.63;;
1505;SDS011;744;51.436;7.356;2023-04-25T04:40:12;6.70;;;2.80;;
1505;SDS011;744;51.436;7.356;2023-04-25T04:42:41;4.70;;;2.63;;
1505;SDS011;744;51.436;7.356;2023-04-25T04:45:09;6.60;;;2.57;;
1505;SDS011;744;51.436;7.356;2023-04-25T04:47:36;5.13;;;2.50;;
1505;SDS011;744;51.436;7.356;2023-04-25T04:50:03;9.10;;;2.93;;
1505;SDS011;744;51.436;7.356;2023-04-25T04:52:36;6.93;;;2.67;;
1505;SDS011;744;51.436;7.356;2023-04-25T04:55:04;9.53;;;3.50;;
1505;SDS011;744;51.436;7.356;2023-04-25T04:57:32;4.60;;;2.30;;
1505;SDS011;744;51.436;7.356;2023-04-25T04:59:59;8.17;;;2.77;;
1505;SDS011;744;51.436;7.356;2023-04-25T05:02:25;4.90;;;2.93;;
1505;SDS011;744;51.436;7.356;2023-04-25T05:04:53;10.20;;;3.00;;
1505;SDS011;744;51.436;7.356;2023-04-25T05:07:20;6.97;;;3.60;;
1505;SDS011;744;51.436;7.356;2023-04-25T05:09:47;6.80;;;2.80;;
1505;SDS011;744;51.436;7.356;2023-04-25T05:12:13;8.30;;;2.53;;
1505;SDS011;744;51.436;7.356;2023-04-25T05:14:40;12.20;;;2.83;;
1505;SDS011;744;51.436;7.356;2023-04-25T05:17:07;8.67;;;2.67;;
1505;SDS011;744;51.436;7.356;2023-04-25T05:19:34;9.53;;;3.13;;
1505;SDS011;744;51.436;7.356;2023-04-25T05:22:02;8.20;;;4.30;;
1505;SDS011;744;51.436;7.356;2023-04-25T05:24:29;6.03;;;3.00;;
1505;SDS011;744;51.436;7.356;2023-04-25T05:26:56;9.17;;;3.10;;
1505;SDS011;744;51.436;7.356;2023-04-25T05:29:23;11.33;;;3.50;;
1505;SDS011;744;51.436;7.356;2023-04-25T05:31:50;6.70;;;3.10;;
1505;SDS011;744;51.436;7.356;2023-04-25T05:34:17;7.63;;;3.17;;
1505;SDS011;744;51.436;7.356;2023-04-25T05:36:44;6.57;;;2.97;;
1505;SDS011;744;51.436;7.356;2023-04-25T05:39:15;9.70;;;3.67;;
1505;SDS011;744;51.436;7.356;2023-04-25T05:41:43;6.00;;;3.00;;
1505;SDS011;744;51.436;7.356;2023-04-25T05:44:10;4.63;;;3.40;;
1505;SDS011;744;51.436;7.356;2023-04-25T05:46:37;8.50;;;3.70;;
1505;SDS011;744;51.436;7.356;2023-04-25T05:49:04;8.20;;;4.50;;
1505;SDS011;744;51.436;7.356;2023-04-25T05:51:31;11.17;;;4.20;;
1505;SDS011;744;51.436;7.356;2023-04-25T05:53:57;4.20;;;3.50;;
1505;SDS011;744;51.436;7.356;2023-04-25T05:56:24;7.00;;;4.20;;
1505;SDS011;744;51.436;7.356;2023-04-25T05:58:51;7.67;;;4.37;;
1505;SDS011;744;51.436;7.356;2023-04-25T06:01:18;12.20;;;4.13;;
1505;SDS011;744;51.436;7.356;2023-04-25T06:03:45;10.27;;;4.80;;
1505;SDS011;744;51.436;7.356;2023-04-25T06:06:12;10.60;;;5.07;;
1505;SDS011;744;51.436;7.356;2023-04-25T06:08:39;9.23;;;5.17;;
1505;SDS011;744;51.436;7.356;2023-04-25T06:11:06;10.60;;;5.20;;
1505;SDS011;744;51.436;7.356;2023-04-25T06:13:33;10.03;;;6.60;;
1505;SDS011;744;51.436;7.356;2023-04-25T06:16:00;14.13;;;5.70;;
1505;SDS011;744;51.436;7.356;2023-04-25T06:18:27;16.30;;;5.80;;
1505;SDS011;744;51.436;7.356;2023-04-25T06:20:54;9.53;;;5.30;;
1505;SDS011;744;51.436;7.356;2023-04-25T06:23:21;9.80;;;4.23;;
1505;SDS011;744;51.436;7.356;2023-04-25T06:25:47;12.43;;;6.23;;
1505;SDS011;744;51.436;7.356;2023-04-25T06:28:14;15.03;;;5.37;;
1505;SDS011;744;51.436;7.356;2023-04-25T06:30:41;11.13;;;6.30;;
1505;SDS011;744;51.436;7.356;2023-04-25T06:33:08;13.17;;;6.60;;
1505;SDS011;744;51.436;7.356;2023-04-25T06:35:34;10.07;;;6.20;;
1505;SDS011;744;51.436;7.356;2023-04-25T06:38:01;11.10;;;6.33;;
1505;SDS011;744;51.436;7.356;2023-04-25T06:40:28;12.43;;;7.00;;
1505;SDS011;744;51.436;7.356;2023-04-25T06:42:55;16.33;;;7.37;;
1505;SDS011;744;51.436;7.356;2023-04-25T06:45:22;11.33;;;7.10;;
1505;SDS011;744;51.436;7.356;2023-04-25T06:47:49;11.53;;;7.07;;
1505;SDS011;744;51.436;7.356;2023-04-25T06:50:15;13.87;;;7.73;;
1505;SDS011;744;51.436;7.356;2023-04-25T06:52:42;14.63;;;8.17;;
1505;SDS011;744;51.436;7.356;2023-04-25T06:55:09;13.40;;;8.57;;
1505;SDS011;744;51.436;7.356;2023-04-25T06:57:36;11.50;;;7.40;;
1505;SDS011;744;51.436;7.356;2023-04-25T07:00:03;13.93;;;6.97;;
1505;SDS011;744;51.436;7.356;2023-04-25T07:02:34;10.43;;;6.50;;
1505;SDS011;744;51.436;7.356;2023-04-25T07:05:02;13.43;;;6.90;;
1505;SDS011;744;51.436;7.356;2023-04-25T07:07:30;16.80;;;7.40;;
1505;SDS011;744;51.436;7.356;2023-04-25T07:09:57;13.53;;;6.07;;
1505;SDS011;744;51.436;7.356;2023-04-25T07:12:24;15.93;;;7.13;;
1505;SDS011;744;51.436;7.356;2023-04-25T07:14:51;20.50;;;6.50;;
1505;SDS011;744;51.436;7.356;2023-04-25T07:17:17;10.97;;;4.97;;
1505;SDS011;744;51.436;7.356;2023-04-25T07:19:44;12.77;;;5.40;;
1505;SDS011;744;51.436;7.356;2023-04-25T07:22:11;16.10;;;5.67;;
1505;SDS011;744;51.436;7.356;2023-04-25T07:24:38;9.40;;;4.40;;
1505;SDS011;744;51.436;7.356;2023-04-25T07:27:05;12.47;;;4.57;;
1505;SDS011;744;51.436;7.356;2023-04-25T07:29:32;9.67;;;4.10;;
1505;SDS011;744;51.436;7.356;2023-04-25T07:32:01;6.93;;;3.40;;
1505;SDS011;744;51.436;7.356;2023-04-25T07:34:28;13.50;;;4.70;;
1505;SDS011;744;51.436;7.356;2023-04-25T07:36:56;12.70;;;5.13;;
1505;SDS011;744;51.436;7.356;2023-04-25T07:39:23;10.57;;;5.13;;
1505;SDS011;744;51.436;7.356;2023-04-25T07:41:50;12.20;;;5.60;;
1505;SDS011;744;51.436;7.356;2023-04-25T07:44:20;10.60;;;5.90;;
1505;SDS011;744;51.436;7.356;2023-04-25T07:46:46;12.17;;;5.50;;
1505;SDS011;744;51.436;7.356;2023-04-25T07:49:13;9.20;;;5.27;;
1505;SDS011;744;51.436;7.356;2023-04-25T07:51:41;9.70;;;4.93;;
1505;SDS011;744;51.436;7.356;2023-04-25T07:54:09;9.50;;;4.20;;
1505;SDS011;744;51.436;7.356;2023-04-25T07:56:38;8.90;;;3.73;;
1505;SDS011;744;51.436;7.356;2023-04-25T07:59:18;15.63;;;3.93;;
1505;SDS011;744;51.436;7.356;2023-04-25T08:01:45;9.57;;;4.10;;
1505;SDS011;744;51.436;7.356;2023-04-25T08:04:12;12.50;;;4.93;;
1505;SDS011;744;51.436;7.356;2023-04-25T08:06:39;8.33;;;3.70;;
1505;SDS011;744;51.436;7.356;2023-04-25T08:09:06;10.57;;;4.70;;
1505;SDS011;744;51.436;7.356;2023-04-25T08:11:36;9.13;;;4.77;;
1505;SDS011;744;51.436;7.356;2023-04-25T08:14:03;13.60;;;4.17;;
1505;SDS011;744;51.436;7.356;2023-04-25T08:16:31;9.07;;;4.53;;
1505;SDS011;744;51.436;7.356;2023-04-25T08:18:58;8.60;;;2.90;;
1505;SDS011;744;51.436;7.356;2023-04-25T08:21:26;10.00;;;3.70;;
1505;SDS011;744;51.436;7.356;2023-04-25T08:23:56;12.10;;;3.53;;
1505;SDS011;744;51.436;7.356;2023-04-25T08:26:24;5.50;;;2.40;;
1505;SDS011;744;51.436;7.356;2023-04-25T08:28:51;8.63;;;2.57;;
1505;SDS011;744;51.436;7.356;2023-04-25T08:31:18;10.87;;;3.00;;
1505;SDS011;744;51.436;7.356;2023-04-25T08:33:46;6.73;;;2.37;;
1505;SDS011;744;51.436;7.356;2023-04-25T08:36:12;10.47;;;3.27;;
1505;SDS011;744;51.436;7.356;2023-04-25T08:38:46;7.60;;;2.90;;
1505;SDS011;744;51.436;7.356;2023-04-25T08:41:13;8.23;;;2.30;;
1505;SDS011;744;51.436;7.356;2023-04-25T08:43:42;8.23;;;2.23;;
1505;SDS011;744;51.436;7.356;2023-04-25T08:46:12;6.10;;;2.20;;
1505;SDS011;744;51.436;7.356;2023-04-25T08:48:41;8.13;;;2.40;;
1505;SDS011;744;51.436;7.356;2023-04-25T08:51:12;10.17;;;1.90;;
1505;SDS011;744;51.436;7.356;2023-04-25T08:53:42;6.83;;;1.93;;
1505;SDS011;744;51.436;7.356;2023-04-25T08:56:11;4.07;;;1.97;;
1505;SDS011;744;51.436;7.356;2023-04-25T08:58:43;10.40;;;2.67;;
1505;SDS011;744;51.436;7.356;2023-04-25T09:01:12;7.03;;;2.63;;
1505;SDS011;744;51.436;7.356;2023-04-25T09:03:38;10.20;;;2.80;;
1505;SDS011;744;51.436;7.356;2023-04-25T09:06:05;6.17;;;2.57;;
1505;SDS011;744;51.436;7.356;2023-04-25T09:08:33;3.83;;;1.93;;
1505;SDS011;744;51.436;7.356;2023-04-25T09:11:00;10.33;;;2.60;;
1505;SDS011;744;51.436;7.356;2023-04-25T09:13:27;8.20;;;2.57;;
1505;SDS011;744;51.436;7.356;2023-04-25T09:15:55;7.03;;;2.07;;
1505;SDS011;744;51.436;7.356;2023-04-25T09:18:24;3.10;;;1.63;;
1505;SDS011;744;51.436;7.356;2023-04-25T09:21:09;4.27;;;2.23;;
1505;SDS011;744;51.436;7.356;2023-04-25T09:26:10;3.53;;;1.47;;
1505;SDS011;744;51.436;7.356;2023-04-25T09:28:41;4.77;;;1.67;;
1505;SDS011;744;51.436;7.356;2023-04-25T09:31:09;4.20;;;1.90;;
1505;SDS011;744;51.436;7.356;2023-04-25T09:33:40;2.57;;;1.53;;
1505;SDS011;744;51.436;7.356;2023-04-25T09:36:10;7.83;;;2.30;;
1505;SDS011;744;51.436;7.356;2023-04-25T09:38:46;10.27;;;2.00;;
1505;SDS011;744;51.436;7.356;2023-04-25T09:41:13;6.47;;;2.00;;
1505;SDS011;744;51.436;7.356;2023-04-25T09:43:48;6.60;;;1.50;;
1505;SDS011;744;51.436;7.356;2023-04-25T09:46:17;4.77;;;1.50;;
1505;SDS011;744;51.436;7.356;2023-04-25T09:48:50;8.83;;;1.57;;
1505;SDS011;744;51.436;7.356;2023-04-25T09:51:17;6.33;;;2.23;;
1505;SDS011;744;51.436;7.356;2023-04-25T09:53:44;4.80;;;1.97;;
1505;SDS011;744;51.436;7.356;2023-04-25T09:56:16;6.17;;;2.17;;
1505;SDS011;744;51.436;7.356;2023-04-25T09:58:44;8.20;;;2.67;;
1505;SDS011;744;51.436;7.356;2023-04-25T10:01:14;9.23;;;2.40;;
1505;SDS011;744;51.436;7.356;2023-04-25T10:03:43;4.07;;;2.73;;
1505;SDS011;744;51.436;7.356;2023-04-25T10:06:14;3.10;;;1.60;;
1505;SDS011;744;51.436;7.356;2023-04-25T10:08:45;5.30;;;2.03;;
1505;SDS011;744;51.436;7.356;2023-04-25T10:11:17;5.20;;;1.70;;
1505;SDS011;744;51.436;7.356;2023-04-25T10:13:44;3.50;;;1.20;;
1505;SDS011;744;51.436;7.356;2023-04-25T10:16:12;3.60;;;1.13;;
1505;SDS011;744;51.436;7.356;2023-04-25T10:18:39;1.87;;;1.00;;
1505;SDS011;744;51.436;7.356;2023-04-25T10:21:06;5.50;;;1.43;;
1505;SDS011;744;51.436;7.356;2023-04-25T10:23:33;5.73;;;1.60;;
1505;SDS011;744;51.436;7.356;2023-04-25T10:26:03;3.00;;;1.20;;
1505;SDS011;744;51.436;7.356;2023-04-25T10:28:30;2.63;;;1.40;;
1505;SDS011;744;51.436;7.356;2023-04-25T10:31:24;2.93;;;1.27;;
1505;SDS011;744;51.436;7.356;2023-04-25T10:33:51;3.53;;;1.37;;
1505;SDS011;744;51.436;7.356;2023-04-25T10:36:21;3.83;;;1.40;;
1505;SDS011;744;51.436;7.356;2023-04-25T10:38:49;8.30;;;1.47;;
1505;SDS011;744;51.436;7.356;2023-04-25T10:41:17;2.90;;;1.50;;
1505;SDS011;744;51.436;7.356;2023-04-25T10:43:46;7.23;;;1.03;;
1505;SDS011;744;51.436;7.356;2023-04-25T10:46:27;5.40;;;1.80;;
1505;SDS011;744;51.436;7.356;2023-04-25T10:48:58;4.43;;;1.63;;
1505;SDS011;744;51.436;7.356;2023-04-25T10:51:27;4.87;;;1.87;;
1505;SDS011;744;51.436;7.356;2023-04-25T10:54:06;3.37;;;1.30;;
1505;SDS011;744;51.436;7.356;2023-04-25T10:59:10;3.23;;;1.50;;
1505;SDS011;744;51.436;7.356;2023-04-25T11:04:19;8.53;;;1.60;;
1505;SDS011;744;51.436;7.356;2023-04-25T11:09:33;4.27;;;2.47;;
1505;SDS011;744;51.436;7.356;2023-04-25T11:12:01;4.13;;;1.20;;
1505;SDS011;744;51.436;7.356;2023-04-25T11:14:28;5.00;;;1.70;;
1505;SDS011;744;51.436;7.356;2023-04-25T11:16:56;3.97;;;2.53;;
1505;SDS011;744;51.436;7.356;2023-04-25T11:19:26;5.03;;;1.60;;
1505;SDS011;744;51.436;7.356;2023-04-25T11:21:55;7.00;;;2.37;;
1505;SDS011;744;51.436;7.356;2023-04-25T11:27:00;4.20;;;2.03;;
1505;SDS011;744;51.436;7.356;2023-04-25T11:29:29;6.53;;;1.67;;
1505;SDS011;744;51.436;7.356;2023-04-25T11:31:56;4.60;;;2.40;;
1505;SDS011;744;51.436;7.356;2023-04-25T11:34:24;6.43;;;1.93;;
1505;SDS011;744;51.436;7.356;2023-04-25T11:36:52;4.00;;;1.33;;
1505;SDS011;744;51.436;7.356;2023-04-25T11:39:19;2.83;;;1.73;;
1505;SDS011;744;51.436;7.356;2023-04-25T11:41:46;3.53;;;1.60;;
1505;SDS011;744;51.436;7.356;2023-04-25T11:44:17;5.87;;;1.73;;
1505;SDS011;744;51.436;7.356;2023-04-25T11:46:45;4.53;;;1.63;;
1505;SDS011;744;51.436;7.356;2023-04-25T11:49:13;5.87;;;1.80;;
1505;SDS011;744;51.436;7.356;2023-04-25T11:51:41;4.93;;;1.33;;
1505;SDS011;744;51.436;7.356;2023-04-25T11:54:12;5.17;;;1.93;;
1505;SDS011;744;51.436;7.356;2023-04-25T11:56:46;10.70;;;3.67;;
1505;SDS011;744;51.436;7.356;2023-04-25T11:59:13;3.13;;;1.60;;
1505;SDS011;744;51.436;7.356;2023-04-25T12:01:47;3.60;;;1.23;;
1505;SDS011;744;51.436;7.356;2023-04-25T12:04:20;3.53;;;1.47;;
1505;SDS011;744;51.436;7.356;2023-04-25T12:06:51;6.73;;;1.63;;
1505;SDS011;744;51.436;7.356;2023-04-25T12:09:21;2.33;;;1.10;;
1505;SDS011;744;51.436;7.356;2023-04-25T12:11:55;2.30;;;2.00;;
1505;SDS011;744;51.436;7.356;2023-04-25T12:14:25;4.30;;;1.33;;
1505;SDS011;744;51.436;7.356;2023-04-25T12:16:55;2.33;;;0.90;;
1505;SDS011;744;51.436;7.356;2023-04-25T12:19:24;1.87;;;0.90;;
1505;SDS011;744;51.436;7.356;2023-04-25T12:21:52;1.80;;;1.63;;
1505;SDS011;744;51.436;7.356;2023-04-25T12:24:25;5.07;;;1.70;;
1505;SDS011;744;51.436;7.356;2023-04-25T12:27:06;2.90;;;1.17;;
1505;SDS011;744;51.436;7.356;2023-04-25T12:29:36;1.00;;;0.90;;
1505;SDS011;744;51.436;7.356;2023-04-25T12:32:15;1.97;;;1.20;;
1505;SDS011;744;51.436;7.356;2023-04-25T12:34:43;3.57;;;1.30;;
1505;SDS011;744;51.436;7.356;2023-04-25T12:37:12;4.40;;;1.40;;
1505;SDS011;744;51.436;7.356;2023-04-25T12:39:39;3.30;;;1.73;;
1505;SDS011;744;51.436;7.356;2023-04-25T12:42:06;1.27;;;1.03;;
1505;SDS011;744;51.436;7.356;2023-04-25T12:44:39;2.53;;;1.07;;
1505;SDS011;744;51.436;7.356;2023-04-25T12:47:07;2.10;;;1.30;;
1505;SDS011;744;51.436;7.356;2023-04-25T12:49:34;3.00;;;1.33;;
1505;SDS011;744;51.436;7.356;2023-04-25T12:52:01;1.90;;;1.17;;
1505;SDS011;744;51.436;7.356;2023-04-25T12:54:28;2.63;;;1.23;;
1505;SDS011;744;51.436;7.356;2023-04-25T12:56:55;1.13;;;0.80;;
1505;SDS011;744;51.436;7.356;2023-04-25T12:59:22;1.53;;;0.83;;
1505;SDS011;744;51.436;7.356;2023-04-25T13:01:49;2.20;;;1.17;;
1505;SDS011;744;51.436;7.356;2023-04-25T13:04:16;3.10;;;1.67;;
1505;SDS011;744;51.436;7.356;2023-04-25T13:06:44;2.87;;;1.07;;
1505;SDS011;744;51.436;7.356;2023-04-25T13:09:10;3.27;;;0.90;;
1505;SDS011;744;51.436;7.356;2023-04-25T13:11:38;2.73;;;1.33;;
1505;SDS011;744;51.436;7.356;2023-04-25T13:14:06;3.07;;;0.97;;
1505;SDS011;744;51.436;7.356;2023-04-25T13:16:34;2.17;;;1.17;;
1505;SDS011;744;51.436;7.356;2023-04-25T13:19:01;1.67;;;0.90;;
1505;SDS011;744;51.436;7.356;2023-04-25T13:21:29;3.07;;;0.90;;
1505;SDS011;744;51.436;7.356;2023-04-25T13:23:58;2.40;;;0.77;;
1505;SDS011;744;51.436;7.356;2023-04-25T13:26:25;4.73;;;1.03;;
1505;SDS011;744;51.436;7.356;2023-04-25T13:28:52;1.83;;;1.00;;
1505;SDS011;744;51.436;7.356;2023-04-25T13:31:19;4.00;;;1.23;;
1505;SDS011;744;51.436;7.356;2023-04-25T13:33:45;4.60;;;1.13;;
1505;SDS011;744;51.436;7.356;2023-04-25T13:36:12;4.53;;;1.23;;
1505;SDS011;744;51.436;7.356;2023-04-25T13:38:39;5.27;;;1.10;;
1505;SDS011;744;51.436;7.356;2023-04-25T13:41:10;2.70;;;0.70;;
1505;SDS011;744;51.436;7.356;2023-04-25T13:43:41;1.50;;;0.77;;
1505;SDS011;744;51.436;7.356;2023-04-25T13:46:08;2.43;;;1.00;;
1505;SDS011;744;51.436;7.356;2023-04-25T13:48:55;8.77;;;1.30;;
1505;SDS011;744;51.436;7.356;2023-04-25T13:51:37;2.53;;;1.40;;
1505;SDS011;744;51.436;7.356;2023-04-25T13:54:03;2.87;;;1.50;;
1505;SDS011;744;51.436;7.356;2023-04-25T13:56:30;5.83;;;1.47;;
1505;SDS011;744;51.436;7.356;2023-04-25T13:58:57;3.33;;;1.00;;
1505;SDS011;744;51.436;7.356;2023-04-25T14:01:24;4.83;;;1.57;;
1505;SDS011;744;51.436;7.356;2023-04-25T14:03:51;6.97;;;1.23;;
1505;SDS011;744;51.436;7.356;2023-04-25T14:06:18;6.40;;;1.50;;
1505;SDS011;744;51.436;7.356;2023-04-25T14:08:51;3.27;;;1.30;;
1505;SDS011;744;51.436;7.356;2023-04-25T14:11:19;7.73;;;1.60;;
1505;SDS011;744;51.436;7.356;2023-04-25T14:13:46;4.27;;;1.23;;
1505;SDS011;744;51.436;7.356;2023-04-25T14:16:15;4.57;;;1.23;;
1505;SDS011;744;51.436;7.356;2023-04-25T14:18:42;1.47;;;1.37;;
1505;SDS011;744;51.436;7.356;2023-04-25T14:21:09;5.33;;;1.27;;
1505;SDS011;744;51.436;7.356;2023-04-25T14:23:36;4.10;;;2.07;;
1505;SDS011;744;51.436;7.356;2023-04-25T14:26:03;3.63;;;1.00;;
1505;SDS011;744;51.436;7.356;2023-04-25T14:28:31;3.13;;;0.93;;
1505;SDS011;744;51.436;7.356;2023-04-25T14:30:58;3.60;;;1.03;;
1505;SDS011;744;51.436;7.356;2023-04-25T14:33:24;3.53;;;0.87;;
1505;SDS011;744;51.436;7.356;2023-04-25T14:35:51;2.30;;;0.90;;
1505;SDS011;744;51.436;7.356;2023-04-25T14:38:19;1.57;;;0.73;;
1505;SDS011;744;51.436;7.356;2023-04-25T14:40:49;1.87;;;0.83;;
1505;SDS011;744;51.436;7.356;2023-04-25T14:43:16;1.50;;;0.70;;
1505;SDS011;744;51.436;7.356;2023-04-25T14:45:43;3.07;;;1.53;;
1505;SDS011;744;51.436;7.356;2023-04-25T14:48:10;2.97;;;1.03;;
1505;SDS011;744;51.436;7.356;2023-04-25T14:50:36;2.03;;;1.00;;
1505;SDS011;744;51.436;7.356;2023-04-25T14:53:03;3.27;;;1.10;;
1505;SDS011;744;51.436;7.356;2023-04-25T14:55:30;2.40;;;0.83;;
1505;SDS011;744;51.436;7.356;2023-04-25T14:57:58;4.13;;;1.23;;
1505;SDS011;744;51.436;7.356;2023-04-25T15:00:25;1.67;;;0.90;;
1505;SDS011;744;51.436;7.356;2023-04-25T15:02:52;2.23;;;1.10;;
1505;SDS011;744;51.436;7.356;2023-04-25T15:05:19;3.73;;;1.27;;
1505;SDS011;744;51.436;7.356;2023-04-25T15:07:46;3.40;;;0.87;;
1505;SDS011;744;51.436;7.356;2023-04-25T15:10:14;1.80;;;0.97;;
1505;SDS011;744;51.436;7.356;2023-04-25T15:12:42;1.57;;;0.90;;
1505;SDS011;744;51.436;7.356;2023-04-25T15:15:12;1.90;;;0.80;;
1505;SDS011;744;51.436;7.356;2023-04-25T15:17:51;2.00;;;0.97;;
1505;SDS011;744;51.436;7.356;2023-04-25T15:20:19;1.43;;;1.00;;
1505;SDS011;744;51.436;7.356;2023-04-25T15:22:46;3.50;;;0.93;;
1505;SDS011;744;51.436;7.356;2023-04-25T15:25:15;1.43;;;1.00;;
1505;SDS011;744;51.436;7.356;2023-04-25T15:27:45;2.33;;;0.90;;
1505;SDS011;744;51.436;7.356;2023-04-25T15:30:15;2.00;;;1.00;;
1505;SDS011;744;51.436;7.356;2023-04-25T15:32:43;4.03;;;1.03;;
1505;SDS011;744;51.436;7.356;2023-04-25T15:35:10;5.13;;;1.30;;
1505;SDS011;744;51.436;7.356;2023-04-25T15:37:37;4.33;;;1.43;;
1505;SDS011;744;51.436;7.356;2023-04-25T15:40:08;2.20;;;1.10;;
1505;SDS011;744;51.436;7.356;2023-04-25T15:42:43;2.93;;;1.30;;